Time;durP1;ratioP1;P1;durP2;ratioP2;P2;SDS_P1;SDS_P2;PMS_P1;PMS_P2;Temp;Humidity;BMP_temperature;BMP_pressure;BME280_temperature;BME280_humidity;BME280_pressure;Samples;Min_cycle;Max_cycle;Signal;HPM_P1;HPM_P2
2021/06/25 00:00:53;;;;;;;2.17;1.70;;;18.30;99.90;;;;;;4941006;29;20563;-77
2021/06/25 00:03:19;;;;;;;1.87;1.57;;;18.30;99.90;;;;;;4938111;29;20241;-78
2021/06/25 00:05:44;;;;;;;4.50;2.17;;;18.30;99.90;;;;;;4948790;29;20278;-78
2021/06/25 00:08:10;;;;;;;3.00;2.10;;;18.30;99.90;;;;;;4955812;29;20206;-76
2021/06/25 00:10:36;;;;;;;2.30;2.10;;;18.30;99.90;;;;;;4944517;28;20210;-76
2021/06/25 00:13:02;;;;;;;1.33;1.10;;;18.30;99.90;;;;;;4948790;29;20577;-78
2021/06/25 00:15:27;;;;;;;1.97;1.53;;;18.30;99.90;;;;;;4938877;28;20175;-77
2021/06/25 00:17:53;;;;;;;4.10;2.17;;;18.30;99.90;;;;;;4953267;28;20823;-77
2021/06/25 00:20:20;;;;;;;10.47;2.70;;;18.20;99.90;;;;;;4944881;29;20191;-77
2021/06/25 00:22:46;;;;;;;4.10;3.80;;;18.20;99.90;;;;;;4951825;28;21805;-78
2021/06/25 00:25:12;;;;;;;0.77;0.70;;;18.20;99.90;;;;;;4950848;29;20441;-78
2021/06/25 00:27:38;;;;;;;2.33;2.13;;;18.20;99.90;;;;;;4939746;28;20451;-78
2021/06/25 00:30:04;;;;;;;5.60;3.03;;;18.30;99.90;;;;;;4946583;29;20210;-77
2021/06/25 00:32:30;;;;;;;3.93;3.47;;;18.20;99.90;;;;;;4951844;28;20206;-78
2021/06/25 00:34:55;;;;;;;2.13;2.00;;;18.20;99.90;;;;;;4946900;29;20842;-76
2021/06/25 00:37:21;;;;;;;4.60;3.17;;;18.30;99.90;;;;;;4944534;28;20635;-77
2021/06/25 00:39:47;;;;;;;4.77;4.37;;;18.30;99.90;;;;;;4954264;28;20174;-78
2021/06/25 00:42:12;;;;;;;5.33;3.13;;;18.30;99.90;;;;;;4953865;29;20225;-78
2021/06/25 00:44:39;;;;;;;4.30;2.60;;;18.30;99.90;;;;;;4953850;29;20670;-78
2021/06/25 00:47:06;;;;;;;1.67;1.57;;;18.30;99.90;;;;;;4952840;28;20225;-77
2021/06/25 00:49:32;;;;;;;3.00;1.63;;;18.30;99.90;;;;;;4953245;28;20501;-77
2021/06/25 00:51:58;;;;;;;2.00;1.60;;;18.30;99.90;;;;;;4954092;29;20513;-77
2021/06/25 00:54:23;;;;;;;4.90;4.47;;;18.20;99.90;;;;;;4951775;29;20731;-76
2021/06/25 00:56:49;;;;;;;1.90;1.80;;;18.20;99.90;;;;;;4952776;29;20185;-76
2021/06/25 00:59:14;;;;;;;3.70;2.07;;;18.20;99.90;;;;;;4954235;29;20225;-77
2021/06/25 01:01:40;;;;;;;2.17;2.07;;;18.20;99.90;;;;;;4954421;28;20186;-77
2021/06/25 01:04:06;;;;;;;7.37;4.63;;;18.10;99.90;;;;;;4954788;28;20178;-77
2021/06/25 01:06:31;;;;;;;1.77;1.67;;;18.10;99.90;;;;;;4954233;28;20185;-76
2021/06/25 01:08:57;;;;;;;7.60;1.80;;;18.00;99.90;;;;;;4942234;29;20205;-76
2021/06/25 01:11:24;;;;;;;6.00;5.33;;;18.00;99.90;;;;;;4953619;28;20190;-76
2021/06/25 01:13:49;;;;;;;3.00;1.30;;;17.90;99.90;;;;;;4954061;28;20473;-77
2021/06/25 01:16:15;;;;;;;5.43;1.87;;;17.90;99.90;;;;;;4954100;28;20457;-77
2021/06/25 01:18:41;;;;;;;1.90;1.30;;;17.90;99.90;;;;;;4953228;28;20579;-77
2021/06/25 01:21:07;;;;;;;1.77;1.40;;;17.90;99.90;;;;;;4949288;29;20418;-76
2021/06/25 01:23:37;;;;;;;1.73;1.47;;;17.80;99.90;;;;;;4953097;28;20428;-77
2021/06/25 01:26:03;;;;;;;1.47;1.20;;;17.80;99.90;;;;;;4952290;29;20189;-77
2021/06/25 01:28:28;;;;;;;1.90;1.80;;;17.70;99.90;;;;;;4954360;28;20449;-76
2021/06/25 01:30:54;;;;;;;4.00;3.70;;;17.70;99.90;;;;;;4953624;29;20181;-77
2021/06/25 01:33:20;;;;;;;1.10;1.00;;;17.70;99.90;;;;;;4947364;29;20206;-77
2021/06/25 01:35:46;;;;;;;3.23;2.70;;;17.60;99.90;;;;;;4944970;29;20193;-77
2021/06/25 01:38:12;;;;;;;1.90;1.80;;;17.50;99.90;;;;;;4953715;28;20560;-75
2021/06/25 01:40:39;;;;;;;2.10;1.53;;;17.50;99.90;;;;;;4952921;28;20422;-76
2021/06/25 01:43:07;;;;;;;7.40;3.23;;;17.40;99.90;;;;;;4953791;28;20488;-77
2021/06/25 01:45:34;;;;;;;2.00;1.87;;;17.40;99.90;;;;;;4953362;28;20445;-77
2021/06/25 01:48:00;;;;;;;7.83;1.80;;;17.30;99.90;;;;;;4953777;28;20530;-77
2021/06/25 01:50:39;;;;;;;4.93;3.53;;;17.30;99.90;;;;;;4951373;28;21015;-76
2021/06/25 01:53:08;;;;;;;2.50;1.93;;;17.20;99.90;;;;;;4953983;28;20467;-77
2021/06/25 01:55:39;;;;;;;3.50;2.90;;;17.10;99.90;;;;;;4957119;28;20456;-76
2021/06/25 01:58:31;;;;;;;3.83;3.50;;;17.10;99.90;;;;;;4950340;29;20430;-76
2021/06/25 02:01:15;;;;;;;1.90;1.47;;;17.00;99.90;;;;;;4945587;29;20978;-77
2021/06/25 02:03:45;;;;;;;1.90;1.70;;;16.90;99.90;;;;;;4943093;28;20422;-77
2021/06/25 02:06:12;;;;;;;3.67;3.37;;;16.90;99.90;;;;;;4961472;28;20422;-77
2021/06/25 02:08:41;;;;;;;2.00;1.53;;;16.90;99.90;;;;;;4954111;28;20540;-77
2021/06/25 02:11:08;;;;;;;2.40;2.00;;;16.90;99.90;;;;;;4940701;28;20435;-76
2021/06/25 02:13:34;;;;;;;2.93;1.60;;;16.90;99.90;;;;;;4947921;28;20454;-77
2021/06/25 02:15:59;;;;;;;2.57;1.70;;;16.90;99.90;;;;;;4951919;29;20425;-77
2021/06/25 02:18:26;;;;;;;1.20;1.10;;;16.80;99.90;;;;;;4957221;29;20517;-76
2021/06/25 02:20:51;;;;;;;4.50;2.83;;;16.90;99.90;;;;;;4958273;28;20185;-77
2021/06/25 02:23:17;;;;;;;2.47;2.27;;;16.90;99.90;;;;;;4958947;29;20504;-77
2021/06/25 02:25:42;;;;;;;2.27;2.17;;;16.90;99.90;;;;;;4958461;28;20193;-77
2021/06/25 02:28:09;;;;;;;2.27;2.13;;;16.90;99.90;;;;;;4958822;29;20261;-77
2021/06/25 02:30:35;;;;;;;2.93;1.60;;;16.90;99.90;;;;;;4958909;29;20249;-77
2021/06/25 02:33:00;;;;;;;3.27;2.30;;;16.80;99.90;;;;;;4957857;28;20461;-77
2021/06/25 02:35:26;;;;;;;1.47;1.37;;;16.80;99.90;;;;;;4957414;28;20425;-77
2021/06/25 02:37:55;;;;;;;3.43;1.70;;;16.80;99.90;;;;;;4957353;28;20198;-76
2021/06/25 02:40:21;;;;;;;1.97;1.87;;;16.80;99.90;;;;;;4954920;29;20672;-77
2021/06/25 02:42:47;;;;;;;1.43;1.20;;;16.80;99.90;;;;;;4955973;29;20939;-77
2021/06/25 02:45:14;;;;;;;2.50;2.30;;;16.80;99.90;;;;;;4955915;28;20425;-77
2021/06/25 02:47:40;;;;;;;1.47;1.37;;;16.80;99.90;;;;;;4956583;28;21134;-77
2021/06/25 02:50:07;;;;;;;4.33;2.33;;;16.70;99.90;;;;;;4955788;28;20426;-77
2021/06/25 02:52:33;;;;;;;2.93;2.17;;;16.70;99.90;;;;;;4945641;29;20578;-77
2021/06/25 02:54:59;;;;;;;2.10;1.77;;;16.60;99.90;;;;;;4950580;28;20467;-77
2021/06/25 02:57:24;;;;;;;2.20;2.00;;;16.50;99.90;;;;;;4944631;29;20839;-76
2021/06/25 02:59:50;;;;;;;1.40;1.30;;;16.50;99.90;;;;;;4942361;29;20624;-77
2021/06/25 03:02:15;;;;;;;3.57;3.37;;;16.50;99.90;;;;;;4946815;29;20171;-77
2021/06/25 03:04:41;;;;;;;3.57;2.30;;;16.40;99.90;;;;;;4951771;28;20170;-77
2021/06/25 03:07:07;;;;;;;3.50;2.40;;;16.40;99.90;;;;;;4954794;28;20187;-77
2021/06/25 03:09:32;;;;;;;2.50;2.03;;;16.30;99.90;;;;;;4937873;28;20183;-77
2021/06/25 03:11:58;;;;;;;3.10;2.50;;;16.20;99.90;;;;;;4938571;29;20178;-77
2021/06/25 03:14:23;;;;;;;2.00;1.90;;;16.20;99.90;;;;;;4951465;29;20210;-77
2021/06/25 03:16:49;;;;;;;1.77;1.60;;;16.10;99.90;;;;;;4952393;29;20202;-77
2021/06/25 03:19:15;;;;;;;9.10;4.33;;;16.10;99.90;;;;;;4949613;29;20206;-76
2021/06/25 03:21:40;;;;;;;3.17;1.47;;;16.10;99.90;;;;;;4946898;28;20189;-77
2021/06/25 03:24:08;;;;;;;4.30;4.00;;;16.10;99.90;;;;;;4945515;29;21222;-77
2021/06/25 03:26:33;;;;;;;2.67;1.90;;;16.10;99.90;;;;;;4940898;29;20223;-77
2021/06/25 03:28:59;;;;;;;2.60;2.40;;;16.10;99.90;;;;;;4952505;28;20848;-76
2021/06/25 03:31:25;;;;;;;6.47;2.20;;;16.10;99.90;;;;;;4951460;29;20189;-76
2021/06/25 03:33:50;;;;;;;10.90;2.33;;;16.00;99.90;;;;;;4946814;29;20212;-77
2021/06/25 03:36:16;;;;;;;2.77;2.57;;;16.00;99.90;;;;;;4950496;28;20218;-76
2021/06/25 03:38:41;;;;;;;2.60;1.43;;;16.10;99.90;;;;;;4945626;29;20562;-77
2021/06/25 03:41:07;;;;;;;1.60;1.50;;;16.00;99.90;;;;;;4947271;29;20170;-76
2021/06/25 03:43:32;;;;;;;1.20;0.80;;;16.00;99.90;;;;;;4949326;29;20182;-77
2021/06/25 03:45:58;;;;;;;1.80;1.70;;;16.00;99.90;;;;;;4949109;28;20179;-77
2021/06/25 03:48:24;;;;;;;5.60;2.90;;;15.90;99.90;;;;;;4951899;29;20210;-77
2021/06/25 03:50:49;;;;;;;3.60;3.40;;;15.90;99.90;;;;;;4942387;28;20202;-77
2021/06/25 03:53:15;;;;;;;2.60;2.40;;;15.90;99.90;;;;;;4938217;29;20190;-77
2021/06/25 03:56:10;;;;;;;8.47;3.30;;;15.80;99.90;;;;;;4954346;28;20208;-77
2021/06/25 03:58:27;;;;;;;3.80;2.70;;;15.70;99.90;;;;;;4946416;29;20238;-77
2021/06/25 04:00:53;;;;;;;2.80;1.77;;;15.70;99.90;;;;;;4939680;29;20421;-77
2021/06/25 04:03:19;;;;;;;2.10;1.63;;;15.60;99.90;;;;;;4936131;29;20427;-77
2021/06/25 04:05:45;;;;;;;2.53;2.33;;;15.60;99.90;;;;;;4951903;29;20431;-75
2021/06/25 04:08:10;;;;;;;4.43;1.97;;;15.60;99.90;;;;;;4946989;29;20235;-77
2021/06/25 04:10:36;;;;;;;3.63;2.87;;;15.70;99.90;;;;;;4952145;29;20241;-76
2021/06/25 04:13:01;;;;;;;2.50;2.30;;;15.70;99.90;;;;;;4953332;29;20373;-77
2021/06/25 04:15:27;;;;;;;2.40;1.10;;;15.70;99.90;;;;;;4947553;28;20229;-76
2021/06/25 04:17:52;;;;;;;1.77;1.67;;;15.70;99.90;;;;;;4947185;29;20204;-76
2021/06/25 04:20:18;;;;;;;4.10;2.70;;;15.70;99.90;;;;;;4942533;28;20241;-77
2021/06/25 04:22:44;;;;;;;3.97;3.63;;;15.70;99.90;;;;;;4961505;28;20177;-76
2021/06/25 04:25:11;;;;;;;1.20;1.10;;;15.70;99.90;;;;;;4948745;28;20686;-76
2021/06/25 04:27:36;;;;;;;4.30;3.60;;;15.80;99.90;;;;;;4948324;28;20771;-76
2021/06/25 04:30:04;;;;;;;4.53;2.83;;;15.80;99.90;;;;;;4940634;29;20422;-79
2021/06/25 04:32:30;;;;;;;5.43;4.67;;;15.90;99.90;;;;;;4948645;28;20183;-78
2021/06/25 04:34:56;;;;;;;4.90;4.60;;;15.90;99.90;;;;;;4946424;29;20410;-77
2021/06/25 04:37:22;;;;;;;11.10;3.27;;;15.90;99.90;;;;;;4945790;29;20476;-79
2021/06/25 04:39:47;;;;;;;3.33;3.13;;;16.00;99.90;;;;;;4948875;28;20182;-79
2021/06/25 04:42:13;;;;;;;4.80;3.23;;;16.10;99.90;;;;;;4944790;29;20712;-79
2021/06/25 04:44:39;;;;;;;3.50;3.23;;;16.20;99.90;;;;;;4952926;28;20256;-79
2021/06/25 04:47:05;;;;;;;8.80;2.37;;;16.20;99.90;;;;;;4938624;29;20972;-79
2021/06/25 04:49:31;;;;;;;4.50;2.80;;;16.30;99.90;;;;;;4950400;29;20202;-78
2021/06/25 04:51:56;;;;;;;5.80;3.23;;;16.30;99.90;;;;;;4936211;29;20430;-79
2021/06/25 04:54:22;;;;;;;2.90;2.27;;;16.30;99.90;;;;;;4941712;29;20458;-78
2021/06/25 04:56:48;;;;;;;4.50;3.30;;;16.40;99.90;;;;;;4950465;28;20190;-79
2021/06/25 04:59:13;;;;;;;2.90;2.60;;;16.50;99.90;;;;;;4945444;28;20194;-79
2021/06/25 05:01:40;;;;;;;9.23;3.40;;;16.60;99.90;;;;;;4948109;29;20181;-77
2021/06/25 05:04:05;;;;;;;4.10;1.83;;;16.70;99.90;;;;;;4949232;28;20199;-78
2021/06/25 05:06:31;;;;;;;2.30;2.10;;;16.70;99.90;;;;;;4952592;29;20425;-78
2021/06/25 05:08:56;;;;;;;3.43;2.50;;;16.70;99.90;;;;;;4952591;29;20198;-78
2021/06/25 05:11:22;;;;;;;2.47;1.70;;;16.70;99.90;;;;;;4946895;28;20262;-78
2021/06/25 05:13:47;;;;;;;4.90;3.90;;;16.70;99.90;;;;;;4947806;29;20202;-80
2021/06/25 05:16:14;;;;;;;6.60;3.77;;;16.80;99.90;;;;;;4937249;29;20175;-78
2021/06/25 05:18:39;;;;;;;2.50;2.30;;;16.90;99.90;;;;;;4944725;29;20207;-78
2021/06/25 05:21:05;;;;;;;3.17;2.97;;;17.00;99.90;;;;;;4945224;29;20428;-77
2021/06/25 05:23:31;;;;;;;3.73;2.33;;;17.00;99.90;;;;;;4944542;29;20201;-79
2021/06/25 05:25:57;;;;;;;1.67;1.57;;;17.10;99.90;;;;;;4944742;29;20430;-79
2021/06/25 05:28:23;;;;;;;3.17;2.97;;;17.10;99.90;;;;;;4937250;29;20443;-78
2021/06/25 05:30:49;;;;;;;4.73;3.67;;;17.10;99.90;;;;;;4942607;29;20433;-78
2021/06/25 05:33:14;;;;;;;4.60;3.20;;;17.30;99.90;;;;;;4947838;29;20671;-79
2021/06/25 05:35:40;;;;;;;3.90;2.50;;;17.30;99.90;;;;;;4937379;29;20178;-78
2021/06/25 05:38:13;;;;;;;1.37;1.20;;;17.50;99.90;;;;;;4943901;28;20579;-78
2021/06/25 05:40:40;;;;;;;7.10;4.00;;;17.60;99.90;;;;;;4949664;28;20651;-78
2021/06/25 05:43:06;;;;;;;3.00;2.80;;;17.60;99.90;;;;;;4949162;29;20508;-79
2021/06/25 05:45:34;;;;;;;4.93;3.90;;;17.70;99.90;;;;;;4942750;29;20426;-78
2021/06/25 05:47:59;;;;;;;2.87;2.60;;;17.80;99.90;;;;;;4948952;28;20443;-79
2021/06/25 05:50:26;;;;;;;3.77;3.47;;;18.00;99.90;;;;;;4941228;29;20634;-76
2021/06/25 05:52:51;;;;;;;10.13;4.27;;;18.10;99.90;;;;;;4952048;28;20213;-76
2021/06/25 05:55:17;;;;;;;3.40;2.53;;;18.20;99.90;;;;;;4940943;29;20902;-77
2021/06/25 05:57:45;;;;;;;4.40;3.70;;;18.20;99.90;;;;;;4957731;28;20190;-76
2021/06/25 06:00:11;;;;;;;4.87;2.60;;;18.40;99.90;;;;;;4956660;29;20418;-79
2021/06/25 06:02:37;;;;;;;2.97;2.63;;;18.50;99.90;;;;;;4950243;28;20810;-77
2021/06/25 06:05:03;;;;;;;1.90;1.77;;;18.60;99.90;;;;;;4955016;28;20414;-77
2021/06/25 06:07:29;;;;;;;2.10;1.97;;;18.60;99.90;;;;;;4940384;29;20203;-77
2021/06/25 06:09:54;;;;;;;4.03;1.50;;;18.60;99.90;;;;;;4938280;29;20464;-76
2021/06/25 06:12:20;;;;;;;3.80;2.30;;;18.50;99.90;;;;;;4937298;29;20206;-75
2021/06/25 06:14:46;;;;;;;10.80;3.10;;;18.60;99.90;;;;;;4973607;28;20540;-76
2021/06/25 06:17:12;;;;;;;2.63;1.93;;;18.50;99.90;;;;;;4976543;28;20492;-76
2021/06/25 06:19:40;;;;;;;3.77;3.47;;;18.50;99.90;;;;;;4970594;28;20446;-76
2021/06/25 06:33:09;;;;;;;5.17;2.43;;;18.90;99.90;;;;;;4954494;29;20448;-77
2021/06/25 06:35:37;;;;;;;3.23;1.97;;;19.10;99.90;;;;;;4956822;28;20890;-77
2021/06/25 06:38:04;;;;;;;1.77;1.10;;;19.20;99.90;;;;;;4954793;29;20441;-76
2021/06/25 06:40:31;;;;;;;1.70;1.60;;;19.40;99.90;;;;;;4950948;28;20453;-78
2021/06/25 06:42:56;;;;;;;8.43;3.03;;;19.50;99.90;;;;;;4948577;28;20457;-78
2021/06/25 06:45:22;;;;;;;2.90;2.70;;;19.70;99.90;;;;;;4941035;28;20872;-77
2021/06/25 06:47:48;;;;;;;3.00;1.73;;;19.80;99.90;;;;;;4954699;29;20292;-79
2021/06/25 06:50:14;;;;;;;2.67;2.43;;;19.90;99.90;;;;;;4954100;28;20209;-79
2021/06/25 06:52:45;;;;;;;3.00;2.70;;;20.00;99.90;;;;;;4954326;28;20184;-78
2021/06/25 06:55:19;;;;;;;1.97;1.47;;;20.20;99.90;;;;;;4948467;29;21970;-79
2021/06/25 06:57:45;;;;;;;5.13;3.00;;;20.30;99.90;;;;;;4947260;29;20529;-78
2021/06/25 07:00:11;;;;;;;1.70;1.60;;;20.30;99.90;;;;;;4946146;28;20908;-78
2021/06/25 07:02:39;;;;;;;2.30;1.77;;;20.50;99.90;;;;;;4945724;28;20518;-79
2021/06/25 07:05:06;;;;;;;1.90;1.80;;;20.80;99.90;;;;;;4946365;28;20418;-78
2021/06/25 07:07:32;;;;;;;4.90;1.70;;;21.00;99.90;;;;;;4939738;28;20525;-77
2021/06/25 07:09:59;;;;;;;2.90;1.63;;;21.20;99.90;;;;;;4945161;29;20453;-78
2021/06/25 07:12:25;;;;;;;1.70;1.60;;;21.40;99.90;;;;;;4954956;28;20421;-79
2021/06/25 07:14:50;;;;;;;2.37;2.20;;;21.60;99.90;;;;;;4938785;29;20423;-78
2021/06/25 07:17:16;;;;;;;2.90;2.70;;;21.80;99.90;;;;;;4938272;29;20178;-79
2021/06/25 07:19:41;;;;;;;1.80;1.23;;;21.90;99.90;;;;;;4951072;29;20240;-79
2021/06/25 07:22:07;;;;;;;4.00;3.50;;;22.00;99.90;;;;;;4943816;29;20169;-78
2021/06/25 07:24:32;;;;;;;1.23;1.13;;;21.90;99.90;;;;;;4949796;29;20189;-78
2021/06/25 07:26:58;;;;;;;2.83;1.80;;;22.00;99.90;;;;;;4955781;28;20184;-79
2021/06/25 07:29:24;;;;;;;1.37;1.27;;;22.30;99.90;;;;;;4956076;28;20190;-78
2021/06/25 07:31:51;;;;;;;1.80;1.53;;;22.50;99.90;;;;;;4942532;28;20792;-79
2021/06/25 07:34:16;;;;;;;2.10;1.90;;;22.70;99.90;;;;;;4946145;29;20453;-78
2021/06/25 07:36:42;;;;;;;1.70;1.60;;;22.90;99.90;;;;;;4953007;28;20429;-79
2021/06/25 07:39:09;;;;;;;2.17;1.40;;;23.10;99.90;;;;;;4948449;29;20549;-78
2021/06/25 07:41:34;;;;;;;2.33;1.00;;;23.10;99.90;;;;;;4956940;29;20248;-79
2021/06/25 07:44:00;;;;;;;1.30;1.20;;;23.20;99.90;;;;;;4947853;29;20418;-79
2021/06/25 07:46:26;;;;;;;3.00;1.40;;;23.10;99.90;;;;;;4953224;28;20178;-79
2021/06/25 07:48:52;;;;;;;1.57;1.47;;;23.00;99.90;;;;;;4953752;29;20198;-77
2021/06/25 07:51:17;;;;;;;2.67;2.47;;;23.00;99.90;;;;;;4948755;29;20426;-78
2021/06/25 07:53:43;;;;;;;3.50;1.67;;;23.00;99.90;;;;;;4946571;29;20313;-76
2021/06/25 07:56:08;;;;;;;1.77;1.10;;;23.10;99.90;;;;;;4944830;29;20163;-79
2021/06/25 07:58:34;;;;;;;1.30;1.20;;;23.20;99.90;;;;;;4954834;28;20198;-79
2021/06/25 08:00:59;;;;;;;1.57;1.47;;;23.40;99.90;;;;;;4947320;29;20527;-79
2021/06/25 08:03:25;;;;;;;1.83;1.10;;;23.60;99.90;;;;;;4944084;29;20174;-78
2021/06/25 08:05:53;;;;;;;1.67;1.47;;;23.80;99.90;;;;;;4945570;29;20197;-80
2021/06/25 08:08:19;;;;;;;1.17;1.07;;;23.80;99.90;;;;;;4950391;28;20568;-79
2021/06/25 08:10:44;;;;;;;1.67;1.20;;;23.90;99.90;;;;;;4955165;28;20419;-78
2021/06/25 08:13:10;;;;;;;1.60;1.50;;;24.10;99.90;;;;;;4949794;29;20195;-79
2021/06/25 08:15:36;;;;;;;1.20;1.03;;;24.30;99.90;;;;;;4944496;29;20230;-78
2021/06/25 08:18:01;;;;;;;2.17;1.50;;;24.50;99.90;;;;;;4950785;29;20187;-79
2021/06/25 08:20:27;;;;;;;3.03;2.07;;;24.60;99.90;;;;;;4947575;29;20179;-80
2021/06/25 08:22:52;;;;;;;2.30;2.10;;;24.70;99.90;;;;;;4947589;29;20261;-79
2021/06/25 08:25:18;;;;;;;2.27;1.93;;;25.00;99.90;;;;;;4953930;28;20579;-79
2021/06/25 08:27:43;;;;;;;2.00;1.80;;;25.20;99.90;;;;;;4940515;29;20206;-79
2021/06/25 08:30:10;;;;;;;1.10;1.00;;;25.30;99.90;;;;;;4951413;28;20656;-78
2021/06/25 08:32:37;;;;;;;1.70;1.60;;;25.60;99.90;;;;;;4950509;29;20683;-79
2021/06/25 08:35:05;;;;;;;0.90;0.77;;;25.80;96.10;;;;;;4950104;28;20414;-79
2021/06/25 08:37:30;;;;;;;2.20;1.93;;;26.30;93.80;;;;;;4935451;29;20531;-79
2021/06/25 08:39:56;;;;;;;1.30;1.03;;;26.80;93.10;;;;;;4952961;28;20500;-79
2021/06/25 08:42:22;;;;;;;3.17;1.70;;;27.20;90.50;;;;;;4946515;28;20518;-79
2021/06/25 08:44:47;;;;;;;2.10;1.90;;;27.30;83.30;;;;;;4945205;28;20253;-78
2021/06/25 08:47:13;;;;;;;1.57;1.37;;;27.60;82.80;;;;;;4946657;29;20175;-78
2021/06/25 08:49:45;;;;;;;1.27;1.17;;;27.90;81.30;;;;;;4943550;29;20175;-79
2021/06/25 08:52:11;;;;;;;2.03;1.83;;;28.00;78.30;;;;;;4946705;29;20301;-79
2021/06/25 08:54:37;;;;;;;2.57;2.20;;;28.20;73.90;;;;;;4947005;29;21151;-79
2021/06/25 08:57:04;;;;;;;1.87;1.67;;;28.20;72.50;;;;;;4948429;29;20205;-78
2021/06/25 08:59:30;;;;;;;2.43;1.70;;;28.00;70.80;;;;;;4950726;28;20438;-79
2021/06/25 09:01:58;;;;;;;1.50;1.40;;;27.70;69.40;;;;;;4954601;28;20489;-80
2021/06/25 09:04:40;;;;;;;1.40;1.20;;;27.60;70.60;;;;;;4952817;28;20432;-79
2021/06/25 09:07:07;;;;;;;1.53;1.37;;;27.80;72.00;;;;;;4942738;29;20497;-78
2021/06/25 09:09:46;;;;;;;2.80;2.60;;;28.00;73.30;;;;;;4945192;29;20979;-78
2021/06/25 09:12:22;;;;;;;1.67;1.37;;;28.20;72.60;;;;;;4936626;29;20418;-78
2021/06/25 09:15:12;;;;;;;4.33;2.00;;;27.80;71.90;;;;;;4946166;28;20839;-78
2021/06/25 09:18:05;;;;;;;1.90;1.70;;;27.40;68.70;;;;;;4954787;28;20532;-78
2021/06/25 09:20:44;;;;;;;3.07;2.83;;;27.20;73.50;;;;;;4943686;29;20426;-78
2021/06/25 09:23:15;;;;;;;2.20;1.57;;;27.30;68.90;;;;;;4945677;28;20472;-78
2021/06/25 09:25:53;;;;;;;1.73;1.20;;;27.30;68.30;;;;;;4937755;28;20429;-78
2021/06/25 09:28:25;;;;;;;1.90;1.77;;;27.50;70.60;;;;;;4953699;28;20472;-79
2021/06/25 09:30:51;;;;;;;2.00;1.90;;;27.60;65.90;;;;;;4948311;29;20460;-79
2021/06/25 09:33:17;;;;;;;2.60;1.90;;;27.90;66.50;;;;;;4953170;28;20499;-78
2021/06/25 09:35:42;;;;;;;1.97;1.77;;;27.90;66.80;;;;;;4944216;28;20927;-80
2021/06/25 09:38:08;;;;;;;1.97;1.87;;;27.90;64.70;;;;;;4946682;29;20194;-79
2021/06/25 09:40:37;;;;;;;1.40;1.30;;;28.20;65.00;;;;;;4944411;28;20278;-77
2021/06/25 09:43:11;;;;;;;1.83;1.47;;;28.00;65.30;;;;;;4934241;29;20175;-78
2021/06/25 09:45:49;;;;;;;2.80;1.53;;;27.90;67.70;;;;;;4944714;29;20551;-79
2021/06/25 09:48:16;;;;;;;2.70;1.53;;;27.40;66.90;;;;;;4935555;29;20793;-79
2021/06/25 09:50:43;;;;;;;1.53;1.00;;;27.20;67.40;;;;;;4936534;29;20558;-78
2021/06/25 09:53:09;;;;;;;1.93;1.67;;;27.40;73.20;;;;;;4953462;28;20446;-79
2021/06/25 09:55:51;;;;;;;1.93;1.83;;;27.60;64.50;;;;;;4949631;28;20429;-79
2021/06/25 10:03:42;;;;;;;2.90;1.80;;;27.70;66.00;;;;;;4944197;29;20425;-79
2021/06/25 10:06:10;;;;;;;1.37;1.27;;;27.50;68.20;;;;;;4946313;28;20880;-79
2021/06/25 10:08:36;;;;;;;6.40;3.03;;;27.10;70.00;;;;;;4941230;28;20458;-78
2021/06/25 10:11:04;;;;;;;11.30;4.53;;;26.70;69.20;;;;;;4954853;28;20426;-78
2021/06/25 10:13:33;;;;;;;2.10;1.90;;;26.40;69.40;;;;;;4947308;28;20512;-78
2021/06/25 10:15:59;;;;;;;2.40;1.17;;;26.20;73.70;;;;;;4948872;29;20843;-79
2021/06/25 10:18:26;;;;;;;2.10;1.53;;;26.20;76.80;;;;;;4949600;28;20550;-78
2021/06/25 10:20:53;;;;;;;3.30;1.30;;;26.70;81.90;;;;;;4944624;29;20624;-80
2021/06/25 10:23:20;;;;;;;1.90;1.80;;;27.10;74.10;;;;;;4946771;28;20424;-79
2021/06/25 10:25:47;;;;;;;3.00;1.73;;;27.30;72.20;;;;;;4943432;28;20422;-80
2021/06/25 10:28:16;;;;;;;1.50;1.40;;;27.70;67.10;;;;;;4948982;29;20868;-80
2021/06/25 10:30:43;;;;;;;2.50;2.10;;;27.90;63.30;;;;;;4951626;28;20426;-78
2021/06/25 10:33:09;;;;;;;1.70;1.60;;;28.30;67.80;;;;;;4952859;28;20454;-78
2021/06/25 10:35:34;;;;;;;2.63;1.40;;;28.70;63.70;;;;;;4951085;28;20479;-78
2021/06/25 10:38:00;;;;;;;1.37;1.27;;;29.00;64.10;;;;;;4951066;29;20187;-77
2021/06/25 10:40:27;;;;;;;1.50;1.40;;;29.50;64.30;;;;;;4954687;29;20659;-79
2021/06/25 10:42:54;;;;;;;2.93;2.63;;;29.90;65.10;;;;;;4944624;28;20174;-77
2021/06/25 10:45:43;;;;;;;3.23;2.50;;;29.70;62.00;;;;;;4955604;28;20556;-79
2021/06/25 10:48:09;;;;;;;2.50;1.97;;;29.60;60.80;;;;;;4952535;28;20860;-79
2021/06/25 10:50:35;;;;;;;1.40;1.30;;;29.70;61.60;;;;;;4952718;28;20413;-78
2021/06/25 10:53:13;;;;;;;1.53;1.40;;;29.70;60.40;;;;;;4951746;29;20213;-79
2021/06/25 10:55:45;;;;;;;2.07;1.80;;;29.90;62.90;;;;;;4953030;28;20423;-78
2021/06/25 10:58:18;;;;;;;1.60;1.50;;;30.10;61.40;;;;;;4947102;28;20445;-79
2021/06/25 11:00:55;;;;;;;1.30;1.20;;;30.10;59.90;;;;;;4954321;29;20413;-78
2021/06/25 11:03:44;;;;;;;1.13;0.90;;;30.40;60.10;;;;;;4942852;28;20430;-78
2021/06/25 11:06:35;;;;;;;1.77;1.67;;;30.70;57.30;;;;;;4949610;28;20508;-76
2021/06/25 11:09:05;;;;;;;2.37;1.93;;;30.90;56.40;;;;;;4940176;29;20504;-77
2021/06/25 11:11:31;;;;;;;4.20;2.40;;;31.20;55.00;;;;;;4951154;29;20422;-77
2021/06/25 11:13:57;;;;;;;2.60;1.57;;;31.10;55.80;;;;;;4955648;28;20534;-77
2021/06/25 11:16:23;;;;;;;2.83;1.57;;;31.00;52.90;;;;;;4943770;28;20171;-78
2021/06/25 11:18:48;;;;;;;1.63;1.53;;;31.10;54.70;;;;;;4958366;28;20334;-78
2021/06/25 11:21:14;;;;;;;1.93;1.67;;;30.90;53.10;;;;;;4949616;29;20175;-78
2021/06/25 11:23:40;;;;;;;1.40;1.30;;;30.80;52.80;;;;;;4938654;29;20261;-77
2021/06/25 11:26:15;;;;;;;1.53;1.40;;;30.40;53.30;;;;;;4943033;29;20249;-79
2021/06/25 11:28:42;;;;;;;1.33;1.23;;;30.20;53.90;;;;;;4944416;28;20201;-78
2021/06/25 11:31:17;;;;;;;1.30;1.20;;;30.60;54.10;;;;;;4951630;28;20862;-78
2021/06/25 11:33:54;;;;;;;1.83;1.73;;;30.80;55.70;;;;;;4950884;29;20606;-78
2021/06/25 11:36:45;;;;;;;1.57;1.47;;;30.60;53.30;;;;;;4946321;29;20767;-79
2021/06/25 11:39:14;;;;;;;1.40;1.30;;;30.80;56.60;;;;;;4953533;29;20445;-79
2021/06/25 11:42:11;;;;;;;1.60;1.30;;;31.00;53.10;;;;;;4952368;28;20501;-78
2021/06/25 11:44:43;;;;;;;1.57;1.47;;;31.00;49.80;;;;;;4946242;29;20469;-79
2021/06/25 11:47:11;;;;;;;2.57;2.07;;;31.30;54.10;;;;;;4949594;28;20491;-78
2021/06/25 11:50:26;;;;;;;1.50;1.40;;;30.90;56.50;;;;;;4948477;29;20442;-77
2021/06/25 11:52:35;;;;;;;1.97;1.80;;;30.80;55.50;;;;;;4953016;28;20440;-78
2021/06/25 11:55:09;;;;;;;2.37;2.17;;;30.70;54.60;;;;;;4961526;28;20425;-78
2021/06/25 11:57:38;;;;;;;1.53;1.43;;;30.40;54.80;;;;;;4960863;28;20465;-78
2021/06/25 12:00:07;;;;;;;1.63;1.50;;;30.30;54.60;;;;;;4959773;28;20510;-79
2021/06/25 12:02:47;;;;;;;3.00;2.80;;;30.00;54.90;;;;;;4957331;28;20454;-78
2021/06/25 12:05:32;;;;;;;1.97;1.87;;;29.80;53.00;;;;;;4955176;28;20421;-79
2021/06/25 12:08:06;;;;;;;1.60;1.17;;;29.70;53.20;;;;;;4957072;28;20489;-78
2021/06/25 12:10:32;;;;;;;1.63;1.43;;;29.80;53.60;;;;;;4950464;28;20441;-77
2021/06/25 12:13:00;;;;;;;2.23;2.03;;;30.00;52.60;;;;;;4949980;29;20461;-77
2021/06/25 12:15:27;;;;;;;2.30;2.10;;;30.30;52.70;;;;;;4953558;28;20445;-78
2021/06/25 12:17:54;;;;;;;2.23;1.93;;;30.40;52.30;;;;;;4951929;29;20442;-78
2021/06/25 12:20:23;;;;;;;1.27;1.17;;;30.30;51.00;;;;;;4949542;28;20445;-78
2021/06/25 12:22:56;;;;;;;2.50;1.83;;;30.40;52.00;;;;;;4951529;28;20434;-77
2021/06/25 12:25:42;;;;;;;2.83;1.97;;;30.10;52.20;;;;;;4951770;28;20525;-78
2021/06/25 12:28:13;;;;;;;1.47;0.93;;;29.70;51.20;;;;;;4955570;28;20476;-78
2021/06/25 12:30:53;;;;;;;2.47;2.27;;;30.00;52.70;;;;;;4952275;29;20508;-78
2021/06/25 12:33:30;;;;;;;2.20;1.73;;;30.10;53.50;;;;;;4950017;29;20873;-77
2021/06/25 12:35:57;;;;;;;2.33;2.23;;;30.30;53.60;;;;;;4948291;29;20429;-78
2021/06/25 12:38:25;;;;;;;2.83;2.53;;;30.20;51.50;;;;;;4951187;28;20585;-78
2021/06/25 12:41:01;;;;;;;1.43;1.20;;;30.20;52.50;;;;;;4951354;28;20429;-77
2021/06/25 12:43:29;;;;;;;1.87;1.73;;;30.40;52.40;;;;;;4947058;29;20450;-78
2021/06/25 12:46:06;;;;;;;2.60;2.17;;;30.60;56.60;;;;;;4951641;28;20434;-78
2021/06/25 12:48:34;;;;;;;2.80;2.60;;;30.70;51.10;;;;;;4951578;28;20457;-77
2021/06/25 12:51:20;;;;;;;2.27;2.00;;;31.10;52.60;;;;;;4951971;28;20426;-79
2021/06/25 12:53:51;;;;;;;2.07;1.87;;;31.30;53.30;;;;;;4953896;28;20465;-79
2021/06/25 12:56:23;;;;;;;1.50;1.40;;;31.70;52.60;;;;;;4954800;29;20428;-78
2021/06/25 12:59:09;;;;;;;1.70;1.60;;;32.00;53.70;;;;;;4946784;28;20813;-79
2021/06/25 13:01:38;;;;;;;2.30;2.10;;;32.20;50.20;;;;;;4951549;28;20458;-79
2021/06/25 13:04:20;;;;;;;2.03;1.93;;;32.40;50.20;;;;;;4947010;29;20421;-78
2021/06/25 13:06:52;;;;;;;1.53;1.43;;;32.20;51.70;;;;;;4946809;28;20809;-79